首页
METAR-TAF:

METAR-TAF

机场 :

奧克蘭機場

奧克蘭都會區, 新西兰

纬度: 37-01S, 经度: 174-48E, 海拔: 7米

当前天气观测

该预报发布于11分钟前的00:00 UTC
风速10节,风向西转西北
温度 15°C
湿度 82%
气压 1004 hPa
能见度10公里或以上
散云层高于2000英尺, 积雨云.

METAR: NZAA 170000Z AUTO 30010KT 9999 SCT020CB FEW055/// SCT070/// BKN090/// 15/12 Q1004 TEMPO 4000 SHRA BKN014

时间: 12:11 (00:11 UTC)

预报

该预报发布于1小时和2分钟前的23:09 UTC
预报有效从17日的 00点(UTC)到 18日的 00点(UTC)
风速5节,风向
能见度10公里或以上
散云层高于2500英尺
多云层高于5000英尺
小阵雨
成为
从 17日的 00点(UTC)到 17日的 02点(UTC)
风速12节,风向西转西南
短暂存在
从 17日的 00点(UTC)到 17日的 02点(UTC)
能見度: 4000
多云层高于1400英尺
散云层高于2000英尺, 积雨云.
阵雨
短暂存在
从 17日的 12点(UTC)到 17日的 16点(UTC)
能見度: 6000
少量云层高于2000英尺, 塔状积云.
阵雨

TAF: NZAA 162309Z 1700/1800 36005KT 9999 -SHRA SCT025 BKN050 BECMG 1700/1702 25012KT TEMPO 1700/1702 4000 SHRA BKN014 SCT020CB TEMPO 1712/1716 6000 SHRA FEW020TCU

超过4000个机场的气象观测和天气预报(METAR&TAF报告)。

可查询的气象台以黄色和红色小点在地图上表示。

将鼠标移到小点上方,可查看气象台名称。

然后点击查看天气观测和预报。

如需切换地图:点击带黑十字的绿色按钮放大地图;点击带横线的绿色按钮缩小地图;或者点击绿色箭头查看邻近地区的地图。


METAR-TAF: